Time;durP1;ratioP1;P1;durP2;ratioP2;P2;SDS_P1;SDS_P2;PMS_P1;PMS_P2;Temp;Humidity;BMP_temperature;BMP_pressure;BME280_temperature;BME280_humidity;BME280_pressure;Samples;Min_cycle;Max_cycle;Signal;HPM_P1;HPM_P2
2022/05/01 00:00:32;;;;;;;;;;;6.90;99.90;;;;;;5033420;28;20502;-69
2022/05/01 00:02:57;;;;;;;;;;;6.90;99.90;;;;;;5033347;28;19948;-71
2022/05/01 00:05:23;;;;;;;;;;;7.10;99.90;;;;;;5033302;28;19925;-69
2022/05/01 00:07:49;;;;;;;;;;;6.40;99.90;;;;;;5032968;28;19925;-70
2022/05/01 00:10:15;;;;;;;;;;;6.70;99.90;;;;;;5036007;28;20284;-70
2022/05/01 00:12:40;;;;;;;;;;;6.60;99.90;;;;;;5036460;28;20020;-70
2022/05/01 00:15:06;;;;;;;;;;;6.50;99.90;;;;;;5037151;28;19929;-70
2022/05/01 00:17:32;;;;;;;;;;;6.50;99.90;;;;;;5036203;28;19925;-70
2022/05/01 00:19:57;;;;;;;;;;;6.50;99.90;;;;;;5036983;28;19932;-69
2022/05/01 00:22:23;;;;;;;;;;;6.50;99.90;;;;;;5036116;28;19925;-69
2022/05/01 00:24:48;;;;;;;;;;;5.40;99.90;;;;;;5037195;28;19971;-70
2022/05/01 00:27:14;;;;;;;;;;;6.50;99.90;;;;;;5037001;28;19932;-68
2022/05/01 00:29:39;;;;;;;;;;;6.60;99.90;;;;;;5035849;28;20383;-69
2022/05/01 00:32:05;;;;;;;;;;;6.50;99.90;;;;;;5036800;28;20324;-68
2022/05/01 00:37:15;;;;;;;;;;;6.50;99.90;;;;;;5036909;28;20284;-69
2022/05/01 00:39:40;;;;;;;;;;;6.80;99.90;;;;;;5036958;28;19925;-71
2022/05/01 00:42:06;;;;;;;;;;;6.50;99.90;;;;;;5035756;28;19982;-69
2022/05/01 00:44:32;;;;;;;;;;;6.50;99.90;;;;;;5035788;28;20330;-69
2022/05/01 00:46:59;;;;;;;;;;;7.10;99.90;;;;;;5035582;28;19925;-70
2022/05/01 00:49:26;;;;;;;;;;;6.80;99.90;;;;;;5036477;28;20372;-70
2022/05/01 00:52:06;;;;;;;;;;;7.20;99.90;;;;;;5036654;28;19925;-70
2022/05/01 00:54:32;;;;;;;;;;;6.60;99.90;;;;;;5036536;28;20294;-71
2022/05/01 00:57:00;;;;;;;;;;;7.30;99.90;;;;;;5035562;28;19925;-69
2022/05/01 00:59:26;;;;;;;;;;;6.60;99.90;;;;;;5036383;28;19979;-69
2022/05/01 01:01:52;;;;;;;;;;;6.60;99.90;;;;;;5036125;28;19951;-69
2022/05/01 01:04:18;;;;;;;;;;;6.50;99.90;;;;;;5035202;28;19975;-68
2022/05/01 01:06:44;;;;;;;;;;;6.60;99.90;;;;;;5035208;28;19925;-69
2022/05/01 01:09:10;;;;;;;;;;;6.90;99.90;;;;;;5036275;28;19925;-71
2022/05/01 01:11:36;;;;;;;;;;;7.10;99.90;;;;;;5036158;28;19925;-70
2022/05/01 01:14:05;;;;;;;;;;;8.10;99.90;;;;;;5035160;28;19925;-70
2022/05/01 01:16:32;;;;;;;;;;;6.60;99.90;;;;;;5036043;28;19926;-70
2022/05/01 01:18:58;;;;;;;;;;;7.20;99.90;;;;;;5035955;28;19925;-70
2022/05/01 01:21:23;;;;;;;;;;;6.80;99.90;;;;;;5033642;28;20272;-69
2022/05/01 01:23:52;;;;;;;;;;;6.60;99.90;;;;;;5035934;28;20026;-70
2022/05/01 01:26:17;;;;;;;;;;;7.30;99.90;;;;;;5035909;28;19932;-71
2022/05/01 01:28:43;;;;;;;;;;;6.70;99.90;;;;;;5034650;28;20019;-68
2022/05/01 01:33:55;;;;;;;;;;;6.80;99.90;;;;;;5035806;28;20425;-69
2022/05/01 01:36:21;;;;;;;;;;;6.80;99.90;;;;;;5035815;28;19925;-71
2022/05/01 01:38:47;;;;;;;;;;;7.50;99.90;;;;;;5035770;28;19932;-70
2022/05/01 01:41:13;;;;;;;;;;;6.80;99.90;;;;;;5034761;28;19980;-69
2022/05/01 01:43:42;;;;;;;;;;;7.30;99.90;;;;;;5018021;28;19925;-69
2022/05/01 01:46:07;;;;;;;;;;;7.10;99.90;;;;;;5035314;28;19932;-70
2022/05/01 01:48:33;;;;;;;;;;;6.80;99.90;;;;;;5035637;28;19925;-70
2022/05/01 01:51:02;;;;;;;;;;;7.70;99.90;;;;;;5034603;28;19929;-70
2022/05/01 01:53:29;;;;;;;;;;;6.80;99.90;;;;;;5034482;28;19925;-71
2022/05/01 01:55:56;;;;;;;;;;;6.80;99.90;;;;;;5035299;28;19979;-68
2022/05/01 01:58:21;;;;;;;;;;;8.30;99.90;;;;;;5035341;28;20419;-70
2022/05/01 02:00:47;;;;;;;;;;;6.70;99.90;;;;;;5035154;28;19925;-71
2022/05/01 02:03:13;;;;;;;;;;;7.40;99.90;;;;;;5035244;28;20360;-70
2022/05/01 02:05:38;;;;;;;;;;;6.70;99.90;;;;;;5035284;28;19925;-68
2022/05/01 02:08:07;;;;;;;;;;;6.80;99.90;;;;;;5033582;28;19925;-69
2022/05/01 02:10:32;;;;;;;;;;;6.80;99.90;;;;;;5033752;28;19929;-69
2022/05/01 02:13:00;;;;;;;;;;;6.80;99.90;;;;;;5034920;28;19932;-70
2022/05/01 02:15:30;;;;;;;;;;;6.70;99.90;;;;;;5034502;28;20399;-70
2022/05/01 02:17:56;;;;;;;;;;;6.70;99.90;;;;;;5034491;28;19987;-70
2022/05/01 02:20:21;;;;;;;;;;;7.20;99.90;;;;;;5033731;28;20372;-70
2022/05/01 02:22:47;;;;;;;;;;;6.70;99.90;;;;;;5033208;28;20016;-69
2022/05/01 02:25:13;;;;;;;;;;;6.90;99.90;;;;;;5034566;28;19933;-70
2022/05/01 02:27:38;;;;;;;;;;;6.70;99.90;;;;;;5034475;28;20399;-67
2022/05/01 02:30:08;;;;;;;;;;;6.70;99.90;;;;;;5034268;28;20280;-69
2022/05/01 02:32:37;;;;;;;;;;;6.70;99.90;;;;;;5032907;28;19924;-69
2022/05/01 02:35:04;;;;;;;;;;;6.70;99.90;;;;;;5034469;28;20372;-71
2022/05/01 02:37:29;;;;;;;;;;;6.60;99.90;;;;;;5034346;28;19925;-69
2022/05/01 02:39:55;;;;;;;;;;;6.60;99.90;;;;;;5034219;28;20429;-71
2022/05/01 02:42:20;;;;;;;;;;;6.50;99.90;;;;;;5034108;28;20427;-70
2022/05/01 02:44:46;;;;;;;;;;;6.50;99.90;;;;;;5033159;28;19976;-70
2022/05/01 02:47:11;;;;;;;;;;;6.50;99.90;;;;;;5033944;28;20375;-71
2022/05/01 02:49:37;;;;;;;;;;;6.40;99.90;;;;;;5034246;28;19932;-71
2022/05/01 02:52:03;;;;;;;;;;;6.40;99.90;;;;;;5034212;28;19972;-69
2022/05/01 02:54:29;;;;;;;;;;;6.40;99.90;;;;;;5033964;28;20402;-68
2022/05/01 02:56:54;;;;;;;;;;;6.30;99.90;;;;;;5033968;28;19925;-68
2022/05/01 02:59:20;;;;;;;;;;;7.90;99.90;;;;;;5033807;28;19925;-69
2022/05/01 03:01:46;;;;;;;;;;;7.30;99.90;;;;;;5033689;28;19925;-69
2022/05/01 03:04:11;;;;;;;;;;;6.30;99.90;;;;;;5033963;28;20354;-70
2022/05/01 03:06:37;;;;;;;;;;;7.40;99.90;;;;;;5033691;28;19925;-68
2022/05/01 03:09:03;;;;;;;;;;;6.30;99.90;;;;;;5033758;28;19959;-70
2022/05/01 03:11:28;;;;;;;;;;;6.30;99.90;;;;;;5033556;28;19994;-70
2022/05/01 03:13:54;;;;;;;;;;;6.30;99.90;;;;;;5033678;28;20067;-68
2022/05/01 03:16:20;;;;;;;;;;;6.20;99.90;;;;;;5033493;28;19971;-70
2022/05/01 03:24:15;;;;;;;;;;;6.10;99.90;;;;;;5033438;28;19947;-70
2022/05/01 03:26:41;;;;;;;;;;;6.00;99.90;;;;;;5032546;28;19929;-69
2022/05/01 03:29:07;;;;;;;;;;;6.00;99.90;;;;;;5032430;28;20024;-70
2022/05/01 03:31:35;;;;;;;;;;;7.40;99.90;;;;;;5033598;28;20012;-68
2022/05/01 03:34:03;;;;;;;;;;;6.00;99.90;;;;;;5033560;28;19925;-68
2022/05/01 03:36:28;;;;;;;;;;;6.10;99.90;;;;;;5033479;28;19964;-68
2022/05/01 03:38:54;;;;;;;;;;;5.80;99.90;;;;;;5033387;28;19968;-70
2022/05/01 03:41:19;;;;;;;;;;;5.70;99.90;;;;;;5032358;28;19925;-71
2022/05/01 03:43:45;;;;;;;;;;;5.60;99.90;;;;;;5033342;28;19931;-71
2022/05/01 03:46:10;;;;;;;;;;;6.30;99.90;;;;;;5037566;28;19925;-70
2022/05/01 03:48:36;;;;;;;;;;;5.60;99.90;;;;;;5037487;28;19951;-69
2022/05/01 03:51:02;;;;;;;;;;;6.40;99.90;;;;;;5037534;28;20017;-70
2022/05/01 03:53:29;;;;;;;;;;;5.50;99.90;;;;;;5037567;28;20372;-71
2022/05/01 03:55:55;;;;;;;;;;;5.30;99.90;;;;;;5037311;28;19960;-70
2022/05/01 03:58:21;;;;;;;;;;;5.30;99.90;;;;;;5037126;28;20410;-71
2022/05/01 04:00:47;;;;;;;;;;;5.20;99.90;;;;;;5037036;28;19925;-68
2022/05/01 04:03:16;;;;;;;;;;;5.20;99.90;;;;;;5037203;28;19929;-70
2022/05/01 04:05:42;;;;;;;;;;;6.70;99.90;;;;;;5036282;28;19925;-71
2022/05/01 04:08:08;;;;;;;;;;;4.90;99.90;;;;;;5036744;28;19971;-68
2022/05/01 04:10:36;;;;;;;;;;;4.80;99.90;;;;;;5036952;28;20008;-70
2022/05/01 04:13:01;;;;;;;;;;;5.00;99.90;;;;;;5036907;28;20011;-70
2022/05/01 04:15:27;;;;;;;;;;;4.90;99.90;;;;;;5036790;28;20020;-69
2022/05/01 04:17:53;;;;;;;;;;;4.90;99.90;;;;;;5036081;28;20421;-70
2022/05/01 04:20:19;;;;;;;;;;;4.90;99.90;;;;;;5036985;28;19951;-70
2022/05/01 04:22:46;;;;;;;;;;;4.70;99.90;;;;;;5036894;28;19925;-68
2022/05/01 04:25:16;;;;;;;;;;;4.70;99.90;;;;;;5037132;28;19925;-70
2022/05/01 04:27:43;;;;;;;;;;;4.70;99.90;;;;;;5036934;28;19977;-69
2022/05/01 04:30:09;;;;;;;;;;;4.70;99.90;;;;;;5036758;28;19929;-68
2022/05/01 04:32:45;;;;;;;;;;;4.70;99.90;;;;;;5036764;28;20442;-70
2022/05/01 04:35:11;;;;;;;;;;;4.80;99.90;;;;;;5036871;28;19925;-69
2022/05/01 04:37:36;;;;;;;;;;;4.60;99.90;;;;;;5036894;28;19925;-70
2022/05/01 04:40:02;;;;;;;;;;;4.80;99.90;;;;;;5019422;28;20008;-70
2022/05/01 04:42:27;;;;;;;;;;;4.80;99.90;;;;;;5036611;28;19925;-68
2022/05/01 04:44:53;;;;;;;;;;;4.80;99.90;;;;;;5035658;28;19929;-71
2022/05/01 04:47:19;;;;;;;;;;;4.80;99.90;;;;;;5035723;28;19925;-71
2022/05/01 04:49:44;;;;;;;;;;;5.20;99.90;;;;;;5036664;28;19925;-69
2022/05/01 04:52:11;;;;;;;;;;;6.00;99.90;;;;;;5036626;28;19932;-71
2022/05/01 04:54:38;;;;;;;;;;;3.30;99.90;;;;;;5035189;28;20390;-71
2022/05/01 04:57:09;;;;;;;;;;;4.90;99.90;;;;;;5036416;28;20292;-71
2022/05/01 04:59:36;;;;;;;;;;;4.90;99.90;;;;;;5036549;28;20356;-68
2022/05/01 05:02:01;;;;;;;;;;;4.90;99.90;;;;;;5036358;28;19932;-69
2022/05/01 05:04:27;;;;;;;;;;;4.90;99.90;;;;;;5036433;28;19925;-68
2022/05/01 05:06:54;;;;;;;;;;;5.00;99.90;;;;;;5035212;28;19976;-68
2022/05/01 05:12:05;;;;;;;;;;;5.30;99.90;;;;;;5036072;28;19971;-70
2022/05/01 05:14:31;;;;;;;;;;;5.00;99.90;;;;;;5036388;28;19971;-69
2022/05/01 05:16:57;;;;;;;;;;;5.00;99.90;;;;;;5036097;28;19925;-70
2022/05/01 05:19:23;;;;;;;;;;;5.90;99.90;;;;;;5035964;28;20403;-71
2022/05/01 05:21:49;;;;;;;;;;;6.10;99.90;;;;;;5035091;28;20257;-68
2022/05/01 05:24:14;;;;;;;;;;;4.70;99.90;;;;;;5036128;28;19925;-69
2022/05/01 05:26:40;;;;;;;;;;;5.20;99.90;;;;;;5035834;28;19929;-70
2022/05/01 05:29:05;;;;;;;;;;;7.00;99.90;;;;;;5033586;28;19932;-71
2022/05/01 05:31:31;;;;;;;;;;;5.30;99.90;;;;;;5034635;28;19925;-70
2022/05/01 05:33:56;;;;;;;;;;;5.40;99.90;;;;;;5034706;28;19958;-70
2022/05/01 05:36:22;;;;;;;;;;;5.60;99.90;;;;;;5035874;28;20399;-70
2022/05/01 05:38:47;;;;;;;;;;;4.90;99.90;;;;;;5035480;28;19925;-70
2022/05/01 05:41:13;;;;;;;;;;;5.70;99.90;;;;;;5035420;28;19983;-70
2022/05/01 05:43:39;;;;;;;;;;;6.40;99.90;;;;;;5035398;28;19979;-68
2022/05/01 05:46:05;;;;;;;;;;;5.90;99.90;;;;;;5035560;28;19979;-69
2022/05/01 05:48:31;;;;;;;;;;;5.00;99.90;;;;;;5035314;28;19972;-70
2022/05/01 05:50:56;;;;;;;;;;;6.20;99.90;;;;;;5034629;28;19925;-72
2022/05/01 05:53:22;;;;;;;;;;;5.30;99.90;;;;;;5035482;28;19925;-68
2022/05/01 05:55:48;;;;;;;;;;;6.50;99.90;;;;;;5035313;28;19965;-71
2022/05/01 05:58:15;;;;;;;;;;;6.30;99.90;;;;;;5034293;28;19925;-69
2022/05/01 06:00:40;;;;;;;;;;;7.20;99.90;;;;;;5035145;28;20121;-71
2022/05/01 06:03:06;;;;;;;;;;;6.50;99.90;;;;;;5034991;28;19925;-69
2022/05/01 06:05:32;;;;;;;;;;;6.50;99.90;;;;;;5035188;28;19926;-70
2022/05/01 06:07:57;;;;;;;;;;;7.20;99.90;;;;;;5034353;28;19929;-68
2022/05/01 06:10:23;;;;;;;;;;;8.20;99.90;;;;;;5033894;28;20084;-69
2022/05/01 06:12:48;;;;;;;;;;;5.80;99.90;;;;;;5034897;28;19931;-68
2022/05/01 06:15:14;;;;;;;;;;;7.50;99.90;;;;;;5034830;28;19925;-68
2022/05/01 06:17:39;;;;;;;;;;;7.00;99.90;;;;;;5034778;28;19925;-69
2022/05/01 06:20:05;;;;;;;;;;;7.10;99.90;;;;;;5034961;28;19979;-69
2022/05/01 06:22:31;;;;;;;;;;;7.10;99.90;;;;;;5033847;28;19932;-70
2022/05/01 06:24:56;;;;;;;;;;;7.30;99.90;;;;;;5033629;28;19952;-69
2022/05/01 06:27:22;;;;;;;;;;;7.40;99.90;;;;;;5034639;28;19929;-70
2022/05/01 06:29:47;;;;;;;;;;;7.50;99.90;;;;;;5034458;28;20334;-70
2022/05/01 06:32:17;;;;;;;;;;;7.50;99.90;;;;;;5034766;28;20440;-70
2022/05/01 06:34:43;;;;;;;;;;;8.20;99.90;;;;;;5034483;28;20512;-71
2022/05/01 06:37:08;;;;;;;;;;;8.20;99.90;;;;;;5034787;28;19979;-68
2022/05/01 06:39:34;;;;;;;;;;;7.80;99.90;;;;;;5034523;28;20279;-70
2022/05/01 06:42:00;;;;;;;;;;;7.90;99.90;;;;;;5034390;28;19929;-69
2022/05/01 06:44:25;;;;;;;;;;;8.00;99.90;;;;;;5033477;28;20399;-70
2022/05/01 06:46:51;;;;;;;;;;;8.10;99.90;;;;;;5033576;28;20360;-69
2022/05/01 06:49:16;;;;;;;;;;;8.20;99.90;;;;;;5034630;28;19925;-71
2022/05/01 06:51:42;;;;;;;;;;;8.30;99.90;;;;;;5034367;28;20391;-70
2022/05/01 06:54:10;;;;;;;;;;;8.30;99.90;;;;;;5034147;28;20980;-70
2022/05/01 06:56:35;;;;;;;;;;;8.40;99.90;;;;;;5033906;28;20016;-70
2022/05/01 06:59:01;;;;;;;;;;;8.40;99.90;;;;;;5032975;28;20415;-70
2022/05/01 07:01:26;;;;;;;;;;;8.40;99.90;;;;;;5034190;28;19933;-70
2022/05/01 07:03:52;;;;;;;;;;;8.40;99.90;;;;;;5034205;28;19929;-69
2022/05/01 07:06:18;;;;;;;;;;;8.30;99.90;;;;;;5034060;28;20390;-70
2022/05/01 07:08:43;;;;;;;;;;;8.30;99.90;;;;;;5034060;28;20153;-68
2022/05/01 07:11:09;;;;;;;;;;;8.30;99.90;;;;;;5033879;28;19925;-70
2022/05/01 07:13:36;;;;;;;;;;;8.30;99.90;;;;;;5033749;28;19972;-70
2022/05/01 07:16:01;;;;;;;;;;;8.30;99.90;;;;;;5034279;28;19929;-71
2022/05/01 07:18:27;;;;;;;;;;;8.30;99.90;;;;;;5033988;28;19932;-68
2022/05/01 07:20:52;;;;;;;;;;;8.30;99.90;;;;;;5034160;28;19979;-68
2022/05/01 07:23:22;;;;;;;;;;;8.30;99.90;;;;;;5033831;28;20364;-68
2022/05/01 07:25:48;;;;;;;;;;;8.40;99.90;;;;;;5033809;28;20066;-71
2022/05/01 07:28:14;;;;;;;;;;;8.90;99.90;;;;;;5032668;28;19925;-71
2022/05/01 07:30:39;;;;;;;;;;;8.40;99.90;;;;;;5033486;28;19932;-69
2022/05/01 07:33:05;;;;;;;;;;;8.50;99.90;;;;;;5033809;28;19925;-69
2022/05/01 07:35:31;;;;;;;;;;;8.80;99.90;;;;;;5033810;28;20026;-69
2022/05/01 07:37:56;;;;;;;;;;;8.50;99.90;;;;;;5032860;28;19925;-68
2022/05/01 07:40:24;;;;;;;;;;;8.50;99.90;;;;;;5033643;28;20013;-71
2022/05/01 07:42:50;;;;;;;;;;;8.60;99.90;;;;;;5033514;28;19929;-69
2022/05/01 07:45:17;;;;;;;;;;;8.10;99.90;;;;;;5033538;28;19947;-70
2022/05/01 07:47:42;;;;;;;;;;;8.90;99.90;;;;;;5032611;28;19925;-70
2022/05/01 07:50:08;;;;;;;;;;;10.30;99.90;;;;;;5038402;28;20025;-69
2022/05/01 07:52:34;;;;;;;;;;;8.80;99.90;;;;;;5052487;28;19924;-71
2022/05/01 07:55:01;;;;;;;;;;;8.80;99.90;;;;;;5047104;28;19948;-69
2022/05/01 07:57:27;;;;;;;;;;;8.90;99.90;;;;;;5032523;28;20283;-68
2022/05/01 07:59:53;;;;;;;;;;;9.00;99.90;;;;;;5033287;28;19929;-70
2022/05/01 08:02:18;;;;;;;;;;;9.10;99.90;;;;;;5033467;28;19925;-70
2022/05/01 08:04:44;;;;;;;;;;;10.50;99.90;;;;;;5032584;28;19925;-72
2022/05/01 08:07:10;;;;;;;;;;;9.30;99.90;;;;;;5033309;28;19979;-70
2022/05/01 08:09:36;;;;;;;;;;;9.40;99.90;;;;;;5031844;28;20059;-69
2022/05/01 08:12:02;;;;;;;;;;;10.10;99.90;;;;;;5033387;28;20339;-69
2022/05/01 08:14:27;;;;;;;;;;;9.40;99.90;;;;;;5033306;28;19929;-69
2022/05/01 08:16:53;;;;;;;;;;;10.20;99.90;;;;;;5032080;28;19929;-71
2022/05/01 08:22:04;;;;;;;;;;;9.50;99.90;;;;;;5033306;28;19929;-71
2022/05/01 08:24:30;;;;;;;;;;;9.50;99.90;;;;;;5033198;28;19925;-71
2022/05/01 08:26:56;;;;;;;;;;;9.50;99.90;;;;;;5033217;28;20394;-69
2022/05/01 08:29:21;;;;;;;;;;;9.40;99.90;;;;;;5033062;28;19929;-71
2022/05/01 08:31:47;;;;;;;;;;;9.60;99.90;;;;;;5036503;28;19995;-69
2022/05/01 08:34:13;;;;;;;;;;;9.60;99.90;;;;;;5036106;28;19976;-71
2022/05/01 08:36:39;;;;;;;;;;;10.20;99.90;;;;;;5035735;28;19992;-69
2022/05/01 08:39:05;;;;;;;;;;;9.90;99.90;;;;;;5035892;28;20287;-70
2022/05/01 08:41:31;;;;;;;;;;;9.90;99.90;;;;;;5036706;28;19932;-70
2022/05/01 08:43:57;;;;;;;;;;;10.00;99.90;;;;;;5035353;28;19925;-71
2022/05/01 08:46:32;;;;;;;;;;;10.00;99.90;;;;;;5035820;28;19929;-70
2022/05/01 08:49:03;;;;;;;;;;;10.20;99.90;;;;;;5036733;28;20467;-70
2022/05/01 08:51:33;;;;;;;;;;;10.30;99.90;;;;;;5036550;28;20398;-69
2022/05/01 08:54:00;;;;;;;;;;;10.40;99.90;;;;;;5035689;28;19974;-71
2022/05/01 08:56:26;;;;;;;;;;;10.50;99.90;;;;;;5036412;28;19960;-70
2022/05/01 08:58:52;;;;;;;;;;;10.70;99.90;;;;;;5036250;28;20295;-71
2022/05/01 09:01:17;;;;;;;;;;;10.90;99.90;;;;;;5036382;28;19932;-70
2022/05/01 09:03:43;;;;;;;;;;;10.90;99.90;;;;;;5035354;28;20354;-71
2022/05/01 09:06:09;;;;;;;;;;;10.90;99.90;;;;;;5036119;28;20323;-71
2022/05/01 09:08:36;;;;;;;;;;;11.30;99.90;;;;;;5036170;28;20010;-71
2022/05/01 09:12:49;;;;;;;;;;;10.90;99.90;;;;;;5036162;28;19932;-72
2022/05/01 09:13:48;;;;;;;;;;;11.00;99.90;;;;;;5036282;28;20019;-71
2022/05/01 09:16:32;;;;;;;;;;;11.00;99.90;;;;;;5035271;28;19968;-71
2022/05/01 09:18:58;;;;;;;;;;;11.00;99.90;;;;;;5036094;28;19925;-70
2022/05/01 09:21:24;;;;;;;;;;;11.00;99.90;;;;;;5036035;28;19925;-72
2022/05/01 09:23:50;;;;;;;;;;;11.00;99.90;;;;;;5035186;28;20365;-70
2022/05/01 09:26:16;;;;;;;;;;;10.90;99.90;;;;;;5035584;28;19925;-69
2022/05/01 09:28:48;;;;;;;;;;;10.90;99.90;;;;;;5035694;28;19976;-70
2022/05/01 09:31:13;;;;;;;;;;;10.80;99.90;;;;;;5035700;28;19933;-73
2022/05/01 09:33:39;;;;;;;;;;;10.80;99.90;;;;;;5034580;28;19932;-71
2022/05/01 09:36:05;;;;;;;;;;;10.80;99.90;;;;;;5035612;28;19940;-72
2022/05/01 09:38:30;;;;;;;;;;;10.80;99.90;;;;;;5035381;28;19925;-69
2022/05/01 09:41:01;;;;;;;;;;;10.00;99.90;;;;;;5035299;28;19948;-70
2022/05/01 09:43:37;;;;;;;;;;;10.90;99.90;;;;;;5034604;28;19925;-70
2022/05/01 09:46:33;;;;;;;;;;;10.70;99.90;;;;;;5034273;28;19929;-69
2022/05/01 09:49:01;;;;;;;;;;;11.00;99.90;;;;;;4993698;28;19930;-69
2022/05/01 09:51:28;;;;;;;;;;;11.10;99.90;;;;;;4977468;28;19933;-70
2022/05/01 09:53:54;;;;;;;;;;;11.30;99.90;;;;;;4993407;28;20362;-71
2022/05/01 09:56:20;;;;;;;;;;;12.20;99.90;;;;;;4993680;28;19926;-70
2022/05/01 09:58:46;;;;;;;;;;;12.00;99.90;;;;;;4993394;28;19929;-70
2022/05/01 10:01:15;;;;;;;;;;;11.70;99.90;;;;;;4977522;28;19926;-71
2022/05/01 10:03:47;;;;;;;;;;;11.80;99.90;;;;;;4993159;28;20448;-69
2022/05/01 10:06:13;;;;;;;;;;;11.90;99.90;;;;;;4993101;28;20068;-70
2022/05/01 10:08:40;;;;;;;;;;;11.90;99.90;;;;;;4993378;28;19949;-71
2022/05/01 10:11:08;;;;;;;;;;;12.00;99.90;;;;;;4992569;28;20457;-69
2022/05/01 10:13:35;;;;;;;;;;;12.10;99.90;;;;;;4993264;28;19941;-71
2022/05/01 10:16:03;;;;;;;;;;;12.10;99.90;;;;;;4993303;28;19949;-70
2022/05/01 10:18:29;;;;;;;;;;;12.10;99.90;;;;;;4976696;28;20377;-69
2022/05/01 10:20:55;;;;;;;;;;;12.20;99.90;;;;;;4993061;28;19925;-70
2022/05/01 10:23:21;;;;;;;;;;;12.30;99.90;;;;;;4960209;28;19980;-71
2022/05/01 10:25:50;;;;;;;;;;;12.40;99.90;;;;;;5021108;28;19925;-71
2022/05/01 10:28:19;;;;;;;;;;;12.40;99.90;;;;;;5034512;28;19925;-71
2022/05/01 10:33:50;;;;;;;;;;;12.60;99.90;;;;;;5033097;28;20365;-71
2022/05/01 10:36:21;;;;;;;;;;;12.70;99.90;;;;;;5033567;28;19972;-70
2022/05/01 10:38:57;;;;;;;;;;;12.70;99.90;;;;;;5034378;28;19973;-72
2022/05/01 10:41:23;;;;;;;;;;;12.70;99.90;;;;;;5034246;28;20343;-70
2022/05/01 10:43:56;;;;;;;;;;;12.70;99.90;;;;;;5034050;28;19933;-70
2022/05/01 10:46:21;;;;;;;;;;;12.60;99.90;;;;;;5034348;28;19925;-71
2022/05/01 10:48:48;;;;;;;;;;;12.60;99.90;;;;;;5034314;28;19948;-72
2022/05/01 10:51:35;;;;;;;;;;;12.40;99.90;;;;;;5034154;28;20410;-70
2022/05/01 10:54:14;;;;;;;;;;;12.40;99.90;;;;;;5033949;28;20015;-71
2022/05/01 10:56:40;;;;;;;;;;;12.30;99.90;;;;;;5033283;28;19931;-70
2022/05/01 10:59:25;;;;;;;;;;;12.30;99.90;;;;;;5034068;28;20299;-71
2022/05/01 11:01:58;;;;;;;;;;;12.20;99.90;;;;;;5033776;28;19929;-70
2022/05/01 11:04:24;;;;;;;;;;;12.10;99.90;;;;;;5033775;28;19976;-70
2022/05/01 11:06:57;;;;;;;;;;;12.10;99.90;;;;;;5032618;28;19932;-71
2022/05/01 11:09:23;;;;;;;;;;;12.00;99.90;;;;;;5033725;28;20467;-71
2022/05/01 11:11:52;;;;;;;;;;;12.00;99.90;;;;;;5033842;28;20015;-71
2022/05/01 11:14:31;;;;;;;;;;;12.00;99.90;;;;;;5033825;28;19931;-71
2022/05/01 11:16:57;;;;;;;;;;;12.00;99.90;;;;;;5032721;28;19932;-70
2022/05/01 11:19:23;;;;;;;;;;;12.00;99.90;;;;;;5033546;28;19929;-71
2022/05/01 11:21:49;;;;;;;;;;;12.40;99.90;;;;;;5032799;28;19956;-72
2022/05/01 11:24:15;;;;;;;;;;;12.10;99.90;;;;;;5033344;28;19925;-72
2022/05/01 11:27:00;;;;;;;;;;;12.10;99.90;;;;;;5033454;28;20287;-70
2022/05/01 11:29:25;;;;;;;;;;;12.10;99.90;;;;;;5033526;28;19932;-71
2022/05/01 11:32:23;;;;;;;;;;;12.20;99.90;;;;;;5032401;28;20004;-70
2022/05/01 11:34:50;;;;;;;;;;;12.20;99.90;;;;;;5008297;28;20523;-69
2022/05/01 11:37:17;;;;;;;;;;;12.30;99.90;;;;;;4991498;28;19926;-71
2022/05/01 11:39:45;;;;;;;;;;;12.40;99.90;;;;;;4991901;28;19929;-71
2022/05/01 11:42:26;;;;;;;;;;;13.70;99.90;;;;;;4991827;28;19932;-71
2022/05/01 11:44:54;;;;;;;;;;;12.60;99.90;;;;;;4991636;28;20410;-71
2022/05/01 11:47:20;;;;;;;;;;;12.60;99.90;;;;;;4991675;28;19926;-70
2022/05/01 11:49:46;;;;;;;;;;;12.70;99.90;;;;;;4991890;28;20022;-73
2022/05/01 11:52:13;;;;;;;;;;;12.90;99.90;;;;;;4975222;28;19926;-70
2022/05/01 11:54:52;;;;;;;;;;;12.70;99.90;;;;;;4991639;28;19960;-70
2022/05/01 12:03:11;;;;;;;;;;;13.00;98.60;;;;;;4991552;28;20487;-70
2022/05/01 12:05:44;;;;;;;;;;;13.00;97.60;;;;;;4960324;28;20345;-72
2022/05/01 12:08:11;;;;;;;;;;;13.10;92.90;;;;;;4995274;28;20404;-71
2022/05/01 12:10:40;;;;;;;;;;;13.10;97.80;;;;;;5006985;28;19925;-71
2022/05/01 12:13:20;;;;;;;;;;;13.20;99.90;;;;;;5015132;28;20017;-71
2022/05/01 12:15:47;;;;;;;;;;;13.00;99.90;;;;;;5015226;28;20287;-71
2022/05/01 12:18:12;;;;;;;;;;;13.30;99.90;;;;;;5014957;28;19926;-71
2022/05/01 12:20:38;;;;;;;;;;;13.30;99.90;;;;;;4998841;28;19933;-70
2022/05/01 12:23:10;;;;;;;;;;;13.40;99.90;;;;;;5014737;28;19926;-70
2022/05/01 12:25:37;;;;;;;;;;;13.40;99.90;;;;;;4998608;28;19925;-70
2022/05/01 12:28:03;;;;;;;;;;;13.40;99.90;;;;;;5014617;28;19963;-72
2022/05/01 12:30:34;;;;;;;;;;;13.40;95.60;;;;;;5014846;28;19964;-71
2022/05/01 12:32:59;;;;;;;;;;;13.40;97.00;;;;;;5017704;28;19947;-71
2022/05/01 12:35:26;;;;;;;;;;;13.40;98.50;;;;;;5036797;28;20338;-70
2022/05/01 12:37:51;;;;;;;;;;;13.30;98.20;;;;;;5036634;28;20277;-71
2022/05/01 12:45:53;;;;;;;;;;;13.10;99.90;;;;;;5036715;28;19925;-70
2022/05/01 12:48:19;;;;;;;;;;;13.10;98.70;;;;;;5036475;28;19931;-70
2022/05/01 12:50:50;;;;;;;;;;;13.10;97.40;;;;;;5035489;28;20063;-71
2022/05/01 12:53:31;;;;;;;;;;;13.10;96.40;;;;;;5036345;28;20016;-70
2022/05/01 12:55:57;;;;;;;;;;;13.00;99.90;;;;;;5036182;28;19925;-69
2022/05/01 12:58:33;;;;;;;;;;;13.60;99.90;;;;;;5036345;28;19975;-70
2022/05/01 13:01:02;;;;;;;;;;;12.90;94.80;;;;;;5036298;28;20292;-70
2022/05/01 13:03:36;;;;;;;;;;;12.90;96.00;;;;;;5036014;28;20403;-71
2022/05/01 13:06:08;;;;;;;;;;;12.90;97.90;;;;;;5034733;28;19925;-70
2022/05/01 13:08:35;;;;;;;;;;;12.90;98.70;;;;;;5035685;28;19929;-70
2022/05/01 13:11:15;;;;;;;;;;;12.80;99.90;;;;;;5048773;28;19931;-71
2022/05/01 13:13:47;;;;;;;;;;;12.80;99.40;;;;;;5055156;28;19931;-70
2022/05/01 13:16:13;;;;;;;;;;;12.80;99.90;;;;;;5053155;28;20427;-70
2022/05/01 13:18:39;;;;;;;;;;;12.80;99.90;;;;;;5053913;28;19928;-72
2022/05/01 13:21:05;;;;;;;;;;;12.90;99.90;;;;;;5052939;28;20384;-69
2022/05/01 13:23:31;;;;;;;;;;;12.90;99.90;;;;;;5044120;28;19935;-71
2022/05/01 13:25:58;;;;;;;;;;;12.90;99.30;;;;;;5055274;28;19924;-71
2022/05/01 13:28:23;;;;;;;;;;;12.90;95.40;;;;;;5055751;28;19935;-71
2022/05/01 13:30:49;;;;;;;;;;;12.90;97.80;;;;;;5055853;28;19925;-71
2022/05/01 13:33:15;;;;;;;;;;;12.90;99.90;;;;;;5055532;28;19924;-70
2022/05/01 13:35:41;;;;;;;;;;;12.90;98.40;;;;;;5054556;28;20016;-69
2022/05/01 13:38:09;;;;;;;;;;;12.90;96.00;;;;;;5054508;28;19986;-70
2022/05/01 13:46:03;;;;;;;;;;;12.80;99.90;;;;;;5055333;28;20023;-69
2022/05/01 13:48:29;;;;;;;;;;;13.10;99.90;;;;;;5055147;28;20398;-71
2022/05/01 13:50:55;;;;;;;;;;;13.10;99.90;;;;;;5055504;28;19929;-72
2022/05/01 13:53:21;;;;;;;;;;;13.10;99.90;;;;;;5055549;28;19925;-72
2022/05/01 13:55:46;;;;;;;;;;;13.20;99.90;;;;;;5055442;28;19970;-70
2022/05/01 13:58:13;;;;;;;;;;;13.20;99.50;;;;;;5054304;28;19971;-71
2022/05/01 14:00:39;;;;;;;;;;;13.60;99.90;;;;;;5055244;28;19987;-71
2022/05/01 14:03:07;;;;;;;;;;;13.30;92.20;;;;;;5053604;28;20295;-69
2022/05/01 14:05:34;;;;;;;;;;;13.40;99.30;;;;;;5037479;28;19928;-69
2022/05/01 14:07:59;;;;;;;;;;;14.40;98.60;;;;;;5054733;28;19935;-69
2022/05/01 14:10:26;;;;;;;;;;;13.50;92.00;;;;;;5055076;28;19968;-71
2022/05/01 14:12:52;;;;;;;;;;;13.60;99.90;;;;;;5053733;28;20268;-70
2022/05/01 14:15:18;;;;;;;;;;;13.70;93.30;;;;;;5054921;28;20019;-70
2022/05/01 14:17:44;;;;;;;;;;;13.80;99.90;;;;;;5054730;28;19928;-70
2022/05/01 14:20:10;;;;;;;;;;;13.90;99.90;;;;;;5054742;28;19931;-69
2022/05/01 14:22:39;;;;;;;;;;;14.00;99.90;;;;;;5053419;28;20378;-70
2022/05/01 14:25:06;;;;;;;;;;;14.20;99.90;;;;;;5053697;28;19925;-70
2022/05/01 14:27:32;;;;;;;;;;;14.20;99.90;;;;;;5053299;28;20015;-70
2022/05/01 14:29:58;;;;;;;;;;;14.20;99.90;;;;;;5053275;28;20021;-70
2022/05/01 14:32:30;;;;;;;;;;;14.20;99.90;;;;;;5053661;28;19928;-71
2022/05/01 14:35:06;;;;;;;;;;;14.10;99.90;;;;;;5053347;28;19929;-72
2022/05/01 14:37:50;;;;;;;;;;;14.00;99.90;;;;;;5054606;28;20015;-69
2022/05/01 14:40:17;;;;;;;;;;;13.90;99.90;;;;;;5054473;28;19925;-71
2022/05/01 14:42:46;;;;;;;;;;;13.80;99.90;;;;;;5053167;28;20342;-69
2022/05/01 14:45:14;;;;;;;;;;;13.70;99.90;;;;;;5054292;28;19924;-71
2022/05/01 14:47:39;;;;;;;;;;;13.70;99.90;;;;;;5053109;28;20352;-70
2022/05/01 14:50:08;;;;;;;;;;;13.60;99.90;;;;;;5053170;28;20021;-70
2022/05/01 14:52:33;;;;;;;;;;;13.60;99.90;;;;;;5054356;28;19929;-71
2022/05/01 14:55:01;;;;;;;;;;;13.60;99.90;;;;;;5054140;28;19935;-71
2022/05/01 14:57:27;;;;;;;;;;;13.60;99.90;;;;;;5086800;28;19925;-69
2022/05/01 15:08:13;;;;;;;;;;;13.60;99.90;;;;;;5053490;28;20011;-71